Middlegate, Nevada
Current Conditions -  °F | °C
As of 3:56 PM on Saturday 25 Oct 2014 (Local Time) from KNFL Reporting Station
Sand / Dust Storm Sand / Dust Storm  
Wind Chill: 65°   Ceiling: Unl
Heat Index: 65°   Visibility: 4mi
Dew Point: 35°   Wind: 36mph
Humidity: 33%   Direction: 270°W
Pressure: 29.91"   Gusts: 47mph
Location:  39.5809°N, 118.333°W
Report Text: KNFL 252256Z 27031G41KT 4SM BLDU SCT100 SCT150 18/02 A2991 RMK AO2 PK WND 28041/2254 SLP104 T01830017
Loading
Personal Weather Stations






























Interactive Weather Map
Tropical Storm Tracking
New forecast layout! Learn more

10-Day Weather Forecast

Advertisements
Track Severe Weather on mobile